Main page
METAR-TAF:

METAR-TAF

Airports :

RAF Leeming

Leeming, England

latitude: 54-18N, longitude: 001-32W, elevation: 40 m

Current weather observation

The report was made 59 minutes ago, at 09:50 UTC
Wind 5 kt from the West
Temperature 20°C
Humidity 68%
Pressure 1018 hPa
Visibility 10 km or more

METAR: EGXE 230950Z AUTO 28005KT 9999 OVC026/// 20/14 Q1018

Time: 11:49 (10:49 UTC)


TAF: missing

Weather observations and forecasts of more than 4000 airports (METAR and TAF reports).

The available stations are represented by yellow and red dots on the map.

Hover mouse over dot to see the name of the station.

Then click to see weather observations and forecasts.

To change the map : click on the green buttons with a black cross to zoom in, on the green button with a dash to zoom out, or on the green arrows for adjacent maps.


METAR-TAF: